sensor_id;sensor_type;location;lat;lon;timestamp;temperature;humidity
26599;DHT22;14240;51.064;16.612;2023-05-17T00:00:16;10.90;99.90
26599;DHT22;14240;51.064;16.612;2023-05-17T00:02:41;11.00;99.90
26599;DHT22;14240;51.064;16.612;2023-05-17T00:05:08;11.00;99.90
26599;DHT22;14240;51.064;16.612;2023-05-17T00:07:33;10.90;99.90
26599;DHT22;14240;51.064;16.612;2023-05-17T00:09:59;10.90;99.90
26599;DHT22;14240;51.064;16.612;2023-05-17T00:12:25;10.90;99.90
26599;DHT22;14240;51.064;16.612;2023-05-17T00:14:50;10.90;99.90
26599;DHT22;14240;51.064;16.612;2023-05-17T00:17:17;10.90;99.90
26599;DHT22;14240;51.064;16.612;2023-05-17T00:19:43;10.90;99.90
26599;DHT22;14240;51.064;16.612;2023-05-17T00:22:09;10.90;99.90
26599;DHT22;14240;51.064;16.612;2023-05-17T00:24:34;10.90;99.90
26599;DHT22;14240;51.064;16.612;2023-05-17T00:27:00;10.90;99.90
26599;DHT22;14240;51.064;16.612;2023-05-17T00:29:26;10.90;99.90
26599;DHT22;14240;51.064;16.612;2023-05-17T00:31:51;10.90;99.90
26599;DHT22;14240;51.064;16.612;2023-05-17T00:34:17;10.90;99.90
26599;DHT22;14240;51.064;16.612;2023-05-17T00:36:43;10.90;99.90
26599;DHT22;14240;51.064;16.612;2023-05-17T00:39:09;10.90;99.90
26599;DHT22;14240;51.064;16.612;2023-05-17T00:41:34;10.90;99.90
26599;DHT22;14240;51.064;16.612;2023-05-17T00:44:00;10.90;99.90
26599;DHT22;14240;51.064;16.612;2023-05-17T00:46:26;10.80;99.90
26599;DHT22;14240;51.064;16.612;2023-05-17T00:48:52;10.80;99.90
26599;DHT22;14240;51.064;16.612;2023-05-17T00:51:18;10.90;99.90
26599;DHT22;14240;51.064;16.612;2023-05-17T00:53:46;10.90;99.90
26599;DHT22;14240;51.064;16.612;2023-05-17T00:56:12;10.90;99.90
26599;DHT22;14240;51.064;16.612;2023-05-17T00:58:38;10.90;99.90
26599;DHT22;14240;51.064;16.612;2023-05-17T01:01:05;10.90;99.90
26599;DHT22;14240;51.064;16.612;2023-05-17T01:03:31;10.90;99.90
26599;DHT22;14240;51.064;16.612;2023-05-17T01:05:57;10.90;99.90
26599;DHT22;14240;51.064;16.612;2023-05-17T01:08:22;10.90;99.90
26599;DHT22;14240;51.064;16.612;2023-05-17T01:11:06;10.90;99.90
26599;DHT22;14240;51.064;16.612;2023-05-17T01:13:54;10.90;99.90
26599;DHT22;14240;51.064;16.612;2023-05-17T01:16:31;10.90;99.90
26599;DHT22;14240;51.064;16.612;2023-05-17T01:22:16;10.80;99.90
26599;DHT22;14240;51.064;16.612;2023-05-17T01:27:44;10.80;99.90
26599;DHT22;14240;51.064;16.612;2023-05-17T01:30:13;10.80;99.90
26599;DHT22;14240;51.064;16.612;2023-05-17T01:32:40;10.80;99.90
26599;DHT22;14240;51.064;16.612;2023-05-17T01:35:07;10.70;99.90
26599;DHT22;14240;51.064;16.612;2023-05-17T01:37:33;10.70;99.90
26599;DHT22;14240;51.064;16.612;2023-05-17T01:39:59;10.70;99.90
26599;DHT22;14240;51.064;16.612;2023-05-17T01:42:30;10.70;99.90
26599;DHT22;14240;51.064;16.612;2023-05-17T01:45:02;10.60;99.90
26599;DHT22;14240;51.064;16.612;2023-05-17T01:50:28;10.60;99.90
26599;DHT22;14240;51.064;16.612;2023-05-17T01:53:19;10.70;99.90
26599;DHT22;14240;51.064;16.612;2023-05-17T01:55:51;10.60;99.90
26599;DHT22;14240;51.064;16.612;2023-05-17T01:58:20;10.60;99.90
26599;DHT22;14240;51.064;16.612;2023-05-17T02:00:48;10.60;99.90
26599;DHT22;14240;51.064;16.612;2023-05-17T02:03:18;10.60;99.90
26599;DHT22;14240;51.064;16.612;2023-05-17T02:05:44;10.60;99.90
26599;DHT22;14240;51.064;16.612;2023-05-17T02:08:10;10.60;99.90
26599;DHT22;14240;51.064;16.612;2023-05-17T02:10:36;10.60;99.90
26599;DHT22;14240;51.064;16.612;2023-05-17T02:13:02;10.60;99.90
26599;DHT22;14240;51.064;16.612;2023-05-17T02:15:27;10.60;99.90
26599;DHT22;14240;51.064;16.612;2023-05-17T02:17:53;10.50;99.90
26599;DHT22;14240;51.064;16.612;2023-05-17T02:20:19;10.50;99.90
26599;DHT22;14240;51.064;16.612;2023-05-17T02:22:45;10.50;99.90
26599;DHT22;14240;51.064;16.612;2023-05-17T02:25:11;10.50;99.90
26599;DHT22;14240;51.064;16.612;2023-05-17T02:27:36;10.50;99.90
26599;DHT22;14240;51.064;16.612;2023-05-17T02:30:03;10.50;99.90
26599;DHT22;14240;51.064;16.612;2023-05-17T02:32:29;10.40;99.90
26599;DHT22;14240;51.064;16.612;2023-05-17T02:34:55;10.40;99.90
26599;DHT22;14240;51.064;16.612;2023-05-17T02:37:21;10.40;99.90
26599;DHT22;14240;51.064;16.612;2023-05-17T02:39:47;10.30;99.90
26599;DHT22;14240;51.064;16.612;2023-05-17T02:42:13;10.40;99.90
26599;DHT22;14240;51.064;16.612;2023-05-17T02:44:39;10.30;99.90
26599;DHT22;14240;51.064;16.612;2023-05-17T02:47:05;10.30;99.90
26599;DHT22;14240;51.064;16.612;2023-05-17T02:49:31;10.30;99.90
26599;DHT22;14240;51.064;16.612;2023-05-17T02:51:56;10.30;99.90
26599;DHT22;14240;51.064;16.612;2023-05-17T02:54:22;10.30;99.90
26599;DHT22;14240;51.064;16.612;2023-05-17T02:56:48;10.20;99.90
26599;DHT22;14240;51.064;16.612;2023-05-17T02:59:14;10.20;99.90
26599;DHT22;14240;51.064;16.612;2023-05-17T03:01:39;10.20;99.90
26599;DHT22;14240;51.064;16.612;2023-05-17T03:04:06;10.20;99.90
26599;DHT22;14240;51.064;16.612;2023-05-17T03:06:32;10.20;99.90
26599;DHT22;14240;51.064;16.612;2023-05-17T03:08:59;10.20;99.90
26599;DHT22;14240;51.064;16.612;2023-05-17T03:11:24;10.10;99.90
26599;DHT22;14240;51.064;16.612;2023-05-17T03:13:50;10.10;99.90
26599;DHT22;14240;51.064;16.612;2023-05-17T03:16:16;10.00;99.90
26599;DHT22;14240;51.064;16.612;2023-05-17T03:18:42;10.00;99.90
26599;DHT22;14240;51.064;16.612;2023-05-17T03:21:08;10.00;99.90
26599;DHT22;14240;51.064;16.612;2023-05-17T03:23:34;10.00;99.90
26599;DHT22;14240;51.064;16.612;2023-05-17T03:25:59;9.90;99.90
26599;DHT22;14240;51.064;16.612;2023-05-17T03:28:25;9.90;99.90
26599;DHT22;14240;51.064;16.612;2023-05-17T03:30:51;9.90;99.90
26599;DHT22;14240;51.064;16.612;2023-05-17T03:33:17;9.90;99.90
26599;DHT22;14240;51.064;16.612;2023-05-17T03:35:43;9.80;99.90
26599;DHT22;14240;51.064;16.612;2023-05-17T03:38:11;9.80;99.90
26599;DHT22;14240;51.064;16.612;2023-05-17T03:40:37;9.80;99.90
26599;DHT22;14240;51.064;16.612;2023-05-17T03:43:02;9.70;99.90
26599;DHT22;14240;51.064;16.612;2023-05-17T03:45:28;9.70;99.90
26599;DHT22;14240;51.064;16.612;2023-05-17T03:47:54;9.70;99.90
26599;DHT22;14240;51.064;16.612;2023-05-17T03:50:20;9.50;99.90
26599;DHT22;14240;51.064;16.612;2023-05-17T03:52:46;9.80;99.90
26599;DHT22;14240;51.064;16.612;2023-05-17T03:55:12;9.60;99.90
26599;DHT22;14240;51.064;16.612;2023-05-17T03:57:37;9.60;99.90
26599;DHT22;14240;51.064;16.612;2023-05-17T04:00:03;9.60;99.90
26599;DHT22;14240;51.064;16.612;2023-05-17T04:02:33;9.60;99.90
26599;DHT22;14240;51.064;16.612;2023-05-17T04:04:59;9.60;99.90
26599;DHT22;14240;51.064;16.612;2023-05-17T04:07:24;9.60;99.90
26599;DHT22;14240;51.064;16.612;2023-05-17T04:09:50;9.60;99.90
26599;DHT22;14240;51.064;16.612;2023-05-17T04:12:16;9.60;99.90
26599;DHT22;14240;51.064;16.612;2023-05-17T04:14:42;9.60;99.90
26599;DHT22;14240;51.064;16.612;2023-05-17T04:17:07;9.60;99.90
26599;DHT22;14240;51.064;16.612;2023-05-17T04:19:33;9.60;99.90
26599;DHT22;14240;51.064;16.612;2023-05-17T04:21:59;9.60;99.90
26599;DHT22;14240;51.064;16.612;2023-05-17T04:24:25;9.60;99.90
26599;DHT22;14240;51.064;16.612;2023-05-17T04:26:50;9.50;99.90
26599;DHT22;14240;51.064;16.612;2023-05-17T04:29:16;9.50;99.90
26599;DHT22;14240;51.064;16.612;2023-05-17T04:31:42;9.50;99.90
26599;DHT22;14240;51.064;16.612;2023-05-17T04:34:07;9.50;99.90
26599;DHT22;14240;51.064;16.612;2023-05-17T04:36:33;9.50;99.90
26599;DHT22;14240;51.064;16.612;2023-05-17T04:38:59;9.50;99.90
26599;DHT22;14240;51.064;16.612;2023-05-17T04:41:25;9.50;99.90
26599;DHT22;14240;51.064;16.612;2023-05-17T04:43:50;9.50;99.90
26599;DHT22;14240;51.064;16.612;2023-05-17T04:46:16;9.50;99.90
26599;DHT22;14240;51.064;16.612;2023-05-17T04:48:42;9.60;99.90
26599;DHT22;14240;51.064;16.612;2023-05-17T04:51:07;9.60;99.90
26599;DHT22;14240;51.064;16.612;2023-05-17T04:53:33;9.70;99.90
26599;DHT22;14240;51.064;16.612;2023-05-17T04:55:59;9.70;99.90
26599;DHT22;14240;51.064;16.612;2023-05-17T04:58:24;9.70;99.90
26599;DHT22;14240;51.064;16.612;2023-05-17T05:00:51;9.70;99.90
26599;DHT22;14240;51.064;16.612;2023-05-17T05:03:17;9.70;99.90
26599;DHT22;14240;51.064;16.612;2023-05-17T05:05:43;9.70;99.90
26599;DHT22;14240;51.064;16.612;2023-05-17T05:08:10;9.70;99.90
26599;DHT22;14240;51.064;16.612;2023-05-17T05:10:36;9.70;99.90
26599;DHT22;14240;51.064;16.612;2023-05-17T05:13:04;9.70;99.90
26599;DHT22;14240;51.064;16.612;2023-05-17T05:15:36;9.70;99.90
26599;DHT22;14240;51.064;16.612;2023-05-17T05:18:08;9.80;99.90
26599;DHT22;14240;51.064;16.612;2023-05-17T05:20:40;9.80;99.90
26599;DHT22;14240;51.064;16.612;2023-05-17T05:23:11;9.80;99.90
26599;DHT22;14240;51.064;16.612;2023-05-17T05:25:41;9.80;99.90
26599;DHT22;14240;51.064;16.612;2023-05-17T05:28:07;9.80;99.90
26599;DHT22;14240;51.064;16.612;2023-05-17T05:30:33;9.80;99.90
26599;DHT22;14240;51.064;16.612;2023-05-17T05:32:59;9.90;99.90
26599;DHT22;14240;51.064;16.612;2023-05-17T05:35:24;9.90;99.90
26599;DHT22;14240;51.064;16.612;2023-05-17T05:37:57;9.90;99.90
26599;DHT22;14240;51.064;16.612;2023-05-17T05:40:23;9.90;99.90
26599;DHT22;14240;51.064;16.612;2023-05-17T05:42:49;9.90;99.90
26599;DHT22;14240;51.064;16.612;2023-05-17T05:45:15;10.00;99.90
26599;DHT22;14240;51.064;16.612;2023-05-17T05:47:40;10.10;99.90
26599;DHT22;14240;51.064;16.612;2023-05-17T05:50:07;10.20;99.90
26599;DHT22;14240;51.064;16.612;2023-05-17T05:52:33;10.30;99.90
26599;DHT22;14240;51.064;16.612;2023-05-17T05:54:59;10.40;99.90
26599;DHT22;14240;51.064;16.612;2023-05-17T05:57:25;10.50;99.90
26599;DHT22;14240;51.064;16.612;2023-05-17T05:59:50;10.60;99.90
26599;DHT22;14240;51.064;16.612;2023-05-17T06:02:16;10.60;99.90
26599;DHT22;14240;51.064;16.612;2023-05-17T06:04:42;10.70;99.90
26599;DHT22;14240;51.064;16.612;2023-05-17T06:07:08;10.70;99.90
26599;DHT22;14240;51.064;16.612;2023-05-17T06:09:33;10.80;99.90
26599;DHT22;14240;51.064;16.612;2023-05-17T06:11:59;10.80;99.90
26599;DHT22;14240;51.064;16.612;2023-05-17T06:14:25;10.90;99.90
26599;DHT22;14240;51.064;16.612;2023-05-17T06:16:51;11.00;99.90
26599;DHT22;14240;51.064;16.612;2023-05-17T06:19:17;11.00;99.90
26599;DHT22;14240;51.064;16.612;2023-05-17T06:21:44;11.10;99.90
26599;DHT22;14240;51.064;16.612;2023-05-17T06:24:10;11.10;99.90
26599;DHT22;14240;51.064;16.612;2023-05-17T06:26:36;11.10;99.90
26599;DHT22;14240;51.064;16.612;2023-05-17T06:29:01;11.10;99.90
26599;DHT22;14240;51.064;16.612;2023-05-17T06:31:28;11.10;99.90
26599;DHT22;14240;51.064;16.612;2023-05-17T06:33:54;11.10;99.90
26599;DHT22;14240;51.064;16.612;2023-05-17T06:36:19;11.20;99.90
26599;DHT22;14240;51.064;16.612;2023-05-17T06:38:45;11.20;99.90
26599;DHT22;14240;51.064;16.612;2023-05-17T06:41:11;11.20;99.90
26599;DHT22;14240;51.064;16.612;2023-05-17T06:43:36;11.20;99.90
26599;DHT22;14240;51.064;16.612;2023-05-17T06:46:02;11.20;99.90
26599;DHT22;14240;51.064;16.612;2023-05-17T06:48:28;11.20;99.90
26599;DHT22;14240;51.064;16.612;2023-05-17T06:50:53;11.20;99.90
26599;DHT22;14240;51.064;16.612;2023-05-17T06:53:19;11.10;99.90
26599;DHT22;14240;51.064;16.612;2023-05-17T06:55:45;11.10;99.90
26599;DHT22;14240;51.064;16.612;2023-05-17T06:58:11;11.10;99.90
26599;DHT22;14240;51.064;16.612;2023-05-17T07:00:36;11.10;99.90
26599;DHT22;14240;51.064;16.612;2023-05-17T07:03:02;11.10;99.90
26599;DHT22;14240;51.064;16.612;2023-05-17T07:05:28;11.10;99.90
26599;DHT22;14240;51.064;16.612;2023-05-17T07:07:56;11.10;99.90
26599;DHT22;14240;51.064;16.612;2023-05-17T07:10:22;11.10;99.90
26599;DHT22;14240;51.064;16.612;2023-05-17T07:12:48;11.10;99.90
26599;DHT22;14240;51.064;16.612;2023-05-17T07:15:13;11.10;99.90
26599;DHT22;14240;51.064;16.612;2023-05-17T07:17:40;11.10;99.90
26599;DHT22;14240;51.064;16.612;2023-05-17T07:20:06;11.10;99.90
26599;DHT22;14240;51.064;16.612;2023-05-17T07:22:32;11.10;99.90
26599;DHT22;14240;51.064;16.612;2023-05-17T07:24:58;11.10;99.90
26599;DHT22;14240;51.064;16.612;2023-05-17T07:27:23;11.10;99.90
26599;DHT22;14240;51.064;16.612;2023-05-17T07:29:49;11.10;99.90
26599;DHT22;14240;51.064;16.612;2023-05-17T07:32:15;11.10;99.90
26599;DHT22;14240;51.064;16.612;2023-05-17T07:34:42;11.10;99.90
26599;DHT22;14240;51.064;16.612;2023-05-17T07:37:08;11.20;99.90
26599;DHT22;14240;51.064;16.612;2023-05-17T07:39:33;11.20;99.90
26599;DHT22;14240;51.064;16.612;2023-05-17T07:41:59;11.20;99.90
26599;DHT22;14240;51.064;16.612;2023-05-17T07:44:25;11.30;99.90
26599;DHT22;14240;51.064;16.612;2023-05-17T07:46:50;11.30;99.90
26599;DHT22;14240;51.064;16.612;2023-05-17T07:49:16;11.30;99.90
26599;DHT22;14240;51.064;16.612;2023-05-17T07:51:42;11.40;99.90
26599;DHT22;14240;51.064;16.612;2023-05-17T07:54:08;11.30;99.90
26599;DHT22;14240;51.064;16.612;2023-05-17T07:56:33;11.40;99.90
26599;DHT22;14240;51.064;16.612;2023-05-17T07:58:59;11.40;99.90
26599;DHT22;14240;51.064;16.612;2023-05-17T08:01:25;11.50;99.90
26599;DHT22;14240;51.064;16.612;2023-05-17T08:03:51;11.50;99.90
26599;DHT22;14240;51.064;16.612;2023-05-17T08:06:18;11.50;99.90
26599;DHT22;14240;51.064;16.612;2023-05-17T08:08:43;11.50;99.90
26599;DHT22;14240;51.064;16.612;2023-05-17T08:11:10;11.40;99.90
26599;DHT22;14240;51.064;16.612;2023-05-17T08:13:36;11.40;99.90
26599;DHT22;14240;51.064;16.612;2023-05-17T08:16:02;11.40;99.90
26599;DHT22;14240;51.064;16.612;2023-05-17T08:18:32;11.30;99.90
26599;DHT22;14240;51.064;16.612;2023-05-17T08:20:58;11.30;99.90
26599;DHT22;14240;51.064;16.612;2023-05-17T08:23:24;11.30;99.90
26599;DHT22;14240;51.064;16.612;2023-05-17T08:25:50;11.40;99.90
26599;DHT22;14240;51.064;16.612;2023-05-17T08:28:15;11.40;99.90
26599;DHT22;14240;51.064;16.612;2023-05-17T08:30:41;11.40;99.90
26599;DHT22;14240;51.064;16.612;2023-05-17T08:33:10;11.40;99.90
26599;DHT22;14240;51.064;16.612;2023-05-17T08:35:36;11.40;99.90
26599;DHT22;14240;51.064;16.612;2023-05-17T08:38:02;11.50;99.90
26599;DHT22;14240;51.064;16.612;2023-05-17T08:40:28;11.50;99.90
26599;DHT22;14240;51.064;16.612;2023-05-17T08:42:53;11.50;99.90
26599;DHT22;14240;51.064;16.612;2023-05-17T08:45:19;11.50;99.90
26599;DHT22;14240;51.064;16.612;2023-05-17T08:47:46;11.50;99.90
26599;DHT22;14240;51.064;16.612;2023-05-17T08:50:13;11.60;99.90
26599;DHT22;14240;51.064;16.612;2023-05-17T08:52:40;11.60;99.90
26599;DHT22;14240;51.064;16.612;2023-05-17T08:55:08;11.70;99.90
26599;DHT22;14240;51.064;16.612;2023-05-17T08:57:34;11.70;99.90
26599;DHT22;14240;51.064;16.612;2023-05-17T09:00:02;11.70;99.90
26599;DHT22;14240;51.064;16.612;2023-05-17T09:02:31;11.70;99.90
26599;DHT22;14240;51.064;16.612;2023-05-17T09:04:58;11.80;99.90
26599;DHT22;14240;51.064;16.612;2023-05-17T09:07:24;11.80;99.90
26599;DHT22;14240;51.064;16.612;2023-05-17T09:09:51;11.90;99.90
26599;DHT22;14240;51.064;16.612;2023-05-17T09:12:20;11.90;99.90
26599;DHT22;14240;51.064;16.612;2023-05-17T09:14:46;11.90;99.90
26599;DHT22;14240;51.064;16.612;2023-05-17T09:17:19;12.00;99.90
26599;DHT22;14240;51.064;16.612;2023-05-17T09:19:46;12.00;99.90
26599;DHT22;14240;51.064;16.612;2023-05-17T09:22:22;12.10;99.90
26599;DHT22;14240;51.064;16.612;2023-05-17T09:24:48;12.10;99.90
26599;DHT22;14240;51.064;16.612;2023-05-17T09:27:16;12.10;99.90
26599;DHT22;14240;51.064;16.612;2023-05-17T09:29:45;12.20;99.90
26599;DHT22;14240;51.064;16.612;2023-05-17T09:32:16;12.20;99.90
26599;DHT22;14240;51.064;16.612;2023-05-17T09:34:44;12.30;99.90
26599;DHT22;14240;51.064;16.612;2023-05-17T09:37:16;12.30;99.90
26599;DHT22;14240;51.064;16.612;2023-05-17T09:39:42;12.40;99.90
26599;DHT22;14240;51.064;16.612;2023-05-17T09:42:13;12.50;99.90
26599;DHT22;14240;51.064;16.612;2023-05-17T09:47:29;12.60;99.90
26599;DHT22;14240;51.064;16.612;2023-05-17T09:49:56;12.70;99.90
26599;DHT22;14240;51.064;16.612;2023-05-17T09:52:27;12.70;99.90
26599;DHT22;14240;51.064;16.612;2023-05-17T09:54:59;12.70;99.90
26599;DHT22;14240;51.064;16.612;2023-05-17T09:57:27;12.80;99.90
26599;DHT22;14240;51.064;16.612;2023-05-17T09:59:54;12.80;99.90
26599;DHT22;14240;51.064;16.612;2023-05-17T10:02:29;12.90;99.90
26599;DHT22;14240;51.064;16.612;2023-05-17T10:04:56;12.90;99.90
26599;DHT22;14240;51.064;16.612;2023-05-17T10:07:24;12.90;99.90
26599;DHT22;14240;51.064;16.612;2023-05-17T10:09:52;13.00;99.90
26599;DHT22;14240;51.064;16.612;2023-05-17T10:12:20;13.10;99.90
26599;DHT22;14240;51.064;16.612;2023-05-17T10:14:47;13.10;99.90
26599;DHT22;14240;51.064;16.612;2023-05-17T10:17:13;13.10;99.90
26599;DHT22;14240;51.064;16.612;2023-05-17T10:19:40;13.10;99.90
26599;DHT22;14240;51.064;16.612;2023-05-17T10:22:06;13.20;99.90
26599;DHT22;14240;51.064;16.612;2023-05-17T10:24:34;13.20;99.90
26599;DHT22;14240;51.064;16.612;2023-05-17T10:27:04;13.30;99.90
26599;DHT22;14240;51.064;16.612;2023-05-17T10:29:32;13.30;99.90
26599;DHT22;14240;51.064;16.612;2023-05-17T10:32:04;13.40;99.90
26599;DHT22;14240;51.064;16.612;2023-05-17T10:34:36;13.40;99.90
26599;DHT22;14240;51.064;16.612;2023-05-17T10:37:02;13.50;99.90
26599;DHT22;14240;51.064;16.612;2023-05-17T10:39:29;13.50;99.90
26599;DHT22;14240;51.064;16.612;2023-05-17T10:41:56;13.40;99.90
26599;DHT22;14240;51.064;16.612;2023-05-17T10:44:23;13.90;99.90
26599;DHT22;14240;51.064;16.612;2023-05-17T10:46:56;13.40;99.90
26599;DHT22;14240;51.064;16.612;2023-05-17T10:49:29;13.40;99.90
26599;DHT22;14240;51.064;16.612;2023-05-17T10:52:17;13.40;99.90
26599;DHT22;14240;51.064;16.612;2023-05-17T10:54:47;13.40;99.90
26599;DHT22;14240;51.064;16.612;2023-05-17T10:57:56;13.40;99.90
26599;DHT22;14240;51.064;16.612;2023-05-17T11:00:23;13.50;99.90
26599;DHT22;14240;51.064;16.612;2023-05-17T11:03:13;13.50;99.90
26599;DHT22;14240;51.064;16.612;2023-05-17T11:08:32;13.50;99.90
26599;DHT22;14240;51.064;16.612;2023-05-17T11:11:12;13.60;99.90
26599;DHT22;14240;51.064;16.612;2023-05-17T11:13:46;13.60;99.90
26599;DHT22;14240;51.064;16.612;2023-05-17T11:16:26;13.60;99.90
26599;DHT22;14240;51.064;16.612;2023-05-17T11:18:54;13.60;99.90
26599;DHT22;14240;51.064;16.612;2023-05-17T11:21:27;13.60;99.90
26599;DHT22;14240;51.064;16.612;2023-05-17T11:24:00;13.60;99.90
26599;DHT22;14240;51.064;16.612;2023-05-17T11:26:33;13.60;99.90
26599;DHT22;14240;51.064;16.612;2023-05-17T11:29:09;13.70;99.90
26599;DHT22;14240;51.064;16.612;2023-05-17T11:31:48;13.70;99.90
26599;DHT22;14240;51.064;16.612;2023-05-17T11:34:18;13.70;99.90
26599;DHT22;14240;51.064;16.612;2023-05-17T11:36:52;13.70;99.90
26599;DHT22;14240;51.064;16.612;2023-05-17T11:39:22;13.60;99.90
26599;DHT22;14240;51.064;16.612;2023-05-17T11:41:53;13.70;99.90
26599;DHT22;14240;51.064;16.612;2023-05-17T11:44:29;13.70;99.90
26599;DHT22;14240;51.064;16.612;2023-05-17T11:47:07;13.70;99.90
26599;DHT22;14240;51.064;16.612;2023-05-17T11:49:37;13.80;99.90
26599;DHT22;14240;51.064;16.612;2023-05-17T11:52:06;13.80;99.90
26599;DHT22;14240;51.064;16.612;2023-05-17T11:54:33;13.80;99.90
26599;DHT22;14240;51.064;16.612;2023-05-17T11:57:00;13.90;99.90
26599;DHT22;14240;51.064;16.612;2023-05-17T11:59:28;13.90;99.90
26599;DHT22;14240;51.064;16.612;2023-05-17T12:01:56;13.90;99.90
26599;DHT22;14240;51.064;16.612;2023-05-17T12:04:23;13.90;99.90
26599;DHT22;14240;51.064;16.612;2023-05-17T12:06:54;13.90;99.90
26599;DHT22;14240;51.064;16.612;2023-05-17T12:09:22;13.90;99.90
26599;DHT22;14240;51.064;16.612;2023-05-17T12:11:50;13.90;99.90
26599;DHT22;14240;51.064;16.612;2023-05-17T12:14:18;13.90;99.90
26599;DHT22;14240;51.064;16.612;2023-05-17T12:16:50;13.90;99.90
26599;DHT22;14240;51.064;16.612;2023-05-17T12:19:21;13.90;99.90
26599;DHT22;14240;51.064;16.612;2023-05-17T12:22:04;13.90;99.90
26599;DHT22;14240;51.064;16.612;2023-05-17T12:24:41;13.90;99.90
26599;DHT22;14240;51.064;16.612;2023-05-17T12:27:08;14.00;99.90
26599;DHT22;14240;51.064;16.612;2023-05-17T12:29:34;14.00;99.90
26599;DHT22;14240;51.064;16.612;2023-05-17T12:32:01;14.00;99.90
26599;DHT22;14240;51.064;16.612;2023-05-17T12:34:29;14.00;99.90
26599;DHT22;14240;51.064;16.612;2023-05-17T12:36:56;14.10;99.90
26599;DHT22;14240;51.064;16.612;2023-05-17T12:39:23;14.00;99.90
26599;DHT22;14240;51.064;16.612;2023-05-17T12:41:52;14.10;99.90
26599;DHT22;14240;51.064;16.612;2023-05-17T12:44:21;14.10;99.90
26599;DHT22;14240;51.064;16.612;2023-05-17T12:46:48;14.00;99.90
26599;DHT22;14240;51.064;16.612;2023-05-17T12:49:20;14.10;99.90
26599;DHT22;14240;51.064;16.612;2023-05-17T12:51:47;14.10;99.90
26599;DHT22;14240;51.064;16.612;2023-05-17T12:54:28;14.10;99.90
26599;DHT22;14240;51.064;16.612;2023-05-17T12:56:54;14.10;99.90
26599;DHT22;14240;51.064;16.612;2023-05-17T12:59:20;14.10;99.90
26599;DHT22;14240;51.064;16.612;2023-05-17T13:01:54;14.10;99.90
26599;DHT22;14240;51.064;16.612;2023-05-17T13:04:31;14.10;99.90
26599;DHT22;14240;51.064;16.612;2023-05-17T13:06:59;14.10;99.90
26599;DHT22;14240;51.064;16.612;2023-05-17T13:09:28;14.10;99.90
26599;DHT22;14240;51.064;16.612;2023-05-17T13:12:01;14.10;99.90
26599;DHT22;14240;51.064;16.612;2023-05-17T13:14:45;14.10;99.90
26599;DHT22;14240;51.064;16.612;2023-05-17T13:20:11;14.10;99.90
26599;DHT22;14240;51.064;16.612;2023-05-17T13:22:45;14.00;99.90
26599;DHT22;14240;51.064;16.612;2023-05-17T13:25:11;14.00;99.90
26599;DHT22;14240;51.064;16.612;2023-05-17T13:27:37;14.00;99.90
26599;DHT22;14240;51.064;16.612;2023-05-17T13:30:06;14.00;99.90
26599;DHT22;14240;51.064;16.612;2023-05-17T13:32:32;14.00;99.90
26599;DHT22;14240;51.064;16.612;2023-05-17T13:34:58;14.00;99.90
26599;DHT22;14240;51.064;16.612;2023-05-17T13:37:24;14.00;99.90
26599;DHT22;14240;51.064;16.612;2023-05-17T13:39:51;14.00;99.90
26599;DHT22;14240;51.064;16.612;2023-05-17T13:42:22;14.00;99.90
26599;DHT22;14240;51.064;16.612;2023-05-17T13:44:48;14.00;99.90
26599;DHT22;14240;51.064;16.612;2023-05-17T13:47:15;14.00;99.90
26599;DHT22;14240;51.064;16.612;2023-05-17T13:49:42;14.00;99.90
26599;DHT22;14240;51.064;16.612;2023-05-17T13:52:07;14.10;99.90
26599;DHT22;14240;51.064;16.612;2023-05-17T13:54:34;14.10;99.90
26599;DHT22;14240;51.064;16.612;2023-05-17T13:57:00;14.10;99.90
26599;DHT22;14240;51.064;16.612;2023-05-17T13:59:26;14.10;99.90
26599;DHT22;14240;51.064;16.612;2023-05-17T14:01:53;14.10;99.90
26599;DHT22;14240;51.064;16.612;2023-05-17T14:04:22;14.10;99.90
26599;DHT22;14240;51.064;16.612;2023-05-17T14:06:48;14.20;99.90
26599;DHT22;14240;51.064;16.612;2023-05-17T14:09:16;14.20;99.90
26599;DHT22;14240;51.064;16.612;2023-05-17T14:11:46;14.20;99.90
26599;DHT22;14240;51.064;16.612;2023-05-17T14:14:12;14.20;99.90
26599;DHT22;14240;51.064;16.612;2023-05-17T14:16:39;14.20;99.90
26599;DHT22;14240;51.064;16.612;2023-05-17T14:19:05;14.30;99.90
26599;DHT22;14240;51.064;16.612;2023-05-17T14:21:33;14.30;99.90
26599;DHT22;14240;51.064;16.612;2023-05-17T14:24:04;14.30;99.90
26599;DHT22;14240;51.064;16.612;2023-05-17T14:26:32;14.20;99.90
26599;DHT22;14240;51.064;16.612;2023-05-17T14:29:00;14.30;99.90
26599;DHT22;14240;51.064;16.612;2023-05-17T14:31:25;14.30;99.90
26599;DHT22;14240;51.064;16.612;2023-05-17T14:33:55;14.30;99.90
26599;DHT22;14240;51.064;16.612;2023-05-17T14:36:20;14.30;99.90
26599;DHT22;14240;51.064;16.612;2023-05-17T14:38:46;14.40;99.90
26599;DHT22;14240;51.064;16.612;2023-05-17T14:41:14;14.40;99.90
26599;DHT22;14240;51.064;16.612;2023-05-17T14:43:43;14.40;99.90
26599;DHT22;14240;51.064;16.612;2023-05-17T14:46:09;14.30;99.90
26599;DHT22;14240;51.064;16.612;2023-05-17T14:48:35;14.30;99.90
26599;DHT22;14240;51.064;16.612;2023-05-17T14:51:01;14.30;99.90
26599;DHT22;14240;51.064;16.612;2023-05-17T14:53:28;14.30;99.90
26599;DHT22;14240;51.064;16.612;2023-05-17T14:55:56;14.40;99.90
26599;DHT22;14240;51.064;16.612;2023-05-17T14:58:24;14.40;99.90
26599;DHT22;14240;51.064;16.612;2023-05-17T15:00:52;14.40;99.90
26599;DHT22;14240;51.064;16.612;2023-05-17T15:03:22;14.40;99.90
26599;DHT22;14240;51.064;16.612;2023-05-17T15:05:56;14.50;99.90
26599;DHT22;14240;51.064;16.612;2023-05-17T15:08:26;14.40;99.90
26599;DHT22;14240;51.064;16.612;2023-05-17T15:10:55;14.50;99.90
26599;DHT22;14240;51.064;16.612;2023-05-17T15:13:24;14.40;99.90
26599;DHT22;14240;51.064;16.612;2023-05-17T15:15:53;14.40;99.90
26599;DHT22;14240;51.064;16.612;2023-05-17T15:18:19;14.40;99.90
26599;DHT22;14240;51.064;16.612;2023-05-17T15:20:45;14.40;99.90
26599;DHT22;14240;51.064;16.612;2023-05-17T15:23:11;14.40;99.90
26599;DHT22;14240;51.064;16.612;2023-05-17T15:25:40;14.40;99.90
26599;DHT22;14240;51.064;16.612;2023-05-17T15:28:10;14.40;99.90
26599;DHT22;14240;51.064;16.612;2023-05-17T15:30:35;14.40;99.90
26599;DHT22;14240;51.064;16.612;2023-05-17T15:33:01;14.40;99.90
26599;DHT22;14240;51.064;16.612;2023-05-17T15:35:27;14.40;99.90
26599;DHT22;14240;51.064;16.612;2023-05-17T15:37:53;14.40;99.90